sensor_id;sensor_type;location;lat;lon;timestamp;pressure;altitude;pressure_sealevel;temperature;humidity
60725;BME280;59881;36.722;-4.462;2023-03-15T00:00:41;101126.06;;;14.02;47.37
60725;BME280;59881;36.722;-4.462;2023-03-15T00:03:08;101166.94;;;14.11;47.59
60725;BME280;59881;36.722;-4.462;2023-03-15T00:05:34;101173.75;;;14.02;47.90
60725;BME280;59881;36.722;-4.462;2023-03-15T00:08:00;101168.88;;;13.96;48.15
60725;BME280;59881;36.722;-4.462;2023-03-15T00:10:27;100671.69;;;10.89;48.08
60725;BME280;59881;36.722;-4.462;2023-03-15T00:12:52;100918.94;;;12.41;48.44
60725;BME280;59881;36.722;-4.462;2023-03-15T00:15:18;101144.53;;;13.66;48.62
60725;BME280;59881;36.722;-4.462;2023-03-15T00:17:44;101186.00;;;13.79;48.82
60725;BME280;59881;36.722;-4.462;2023-03-15T00:20:10;101163.63;;;13.83;48.95
60725;BME280;59881;36.722;-4.462;2023-03-15T00:22:37;101161.72;;;13.85;48.68
60725;BME280;59881;36.722;-4.462;2023-03-15T00:25:03;100822.03;;;11.01;48.71
60725;BME280;59881;36.722;-4.462;2023-03-15T00:27:28;100880.72;;;12.21;48.63
60725;BME280;59881;36.722;-4.462;2023-03-15T00:29:54;101157.91;;;13.89;48.38
60725;BME280;59881;36.722;-4.462;2023-03-15T00:32:19;101151.97;;;13.85;48.19
60725;BME280;59881;36.722;-4.462;2023-03-15T00:34:45;100951.97;;;12.59;48.23
60725;BME280;59881;36.722;-4.462;2023-03-15T00:37:16;100916.09;;;12.31;48.30
60725;BME280;59881;36.722;-4.462;2023-03-15T00:39:44;101151.06;;;13.74;48.27
60725;BME280;59881;36.722;-4.462;2023-03-15T00:42:10;101311.44;;;13.65;48.78
60725;BME280;59881;36.722;-4.462;2023-03-15T00:44:44;101148.88;;;13.55;48.88
60725;BME280;59881;36.722;-4.462;2023-03-15T00:47:10;101155.25;;;13.52;49.12
60725;BME280;59881;36.722;-4.462;2023-03-15T00:49:37;101158.22;;;13.48;48.90
60725;BME280;59881;36.722;-4.462;2023-03-15T00:52:03;101266.31;;;13.41;48.81
60725;BME280;59881;36.722;-4.462;2023-03-15T00:54:29;101025.13;;;12.08;49.01
60725;BME280;59881;36.722;-4.462;2023-03-15T00:57:01;100938.38;;;11.49;49.37
60725;BME280;59881;36.722;-4.462;2023-03-15T00:59:29;100826.56;;;10.71;49.25
60725;BME280;59881;36.722;-4.462;2023-03-15T01:02:02;101262.81;;;13.28;49.88
60725;BME280;59881;36.722;-4.462;2023-03-15T01:04:29;101160.69;;;13.25;49.92
60725;BME280;59881;36.722;-4.462;2023-03-15T01:06:56;101164.28;;;13.24;49.95
60725;BME280;59881;36.722;-4.462;2023-03-15T01:09:21;100761.00;;;10.67;50.04
60725;BME280;59881;36.722;-4.462;2023-03-15T01:11:47;100621.91;;;9.92;49.90
60725;BME280;59881;36.722;-4.462;2023-03-15T01:14:13;100207.84;;;6.67;49.74
60725;BME280;59881;36.722;-4.462;2023-03-15T01:16:38;100274.97;;;7.72;49.87
60725;BME280;59881;36.722;-4.462;2023-03-15T01:19:04;100810.22;;;9.96;50.06
60725;BME280;59881;36.722;-4.462;2023-03-15T01:21:30;100651.59;;;9.94;50.32
60725;BME280;59881;36.722;-4.462;2023-03-15T01:23:55;101082.84;;;12.52;50.33
60725;BME280;59881;36.722;-4.462;2023-03-15T01:26:22;101183.22;;;13.05;50.42
60725;BME280;59881;36.722;-4.462;2023-03-15T01:28:47;101170.84;;;13.05;50.60
60725;BME280;59881;36.722;-4.462;2023-03-15T01:31:18;100682.38;;;10.06;50.40
60725;BME280;59881;36.722;-4.462;2023-03-15T01:33:44;101172.00;;;13.01;50.60
60725;BME280;59881;36.722;-4.462;2023-03-15T01:36:10;101171.25;;;12.99;50.69
60725;BME280;59881;36.722;-4.462;2023-03-15T01:38:36;101350.19;;;13.00;50.89
60725;BME280;59881;36.722;-4.462;2023-03-15T01:41:02;101205.66;;;12.99;50.81
60725;BME280;59881;36.722;-4.462;2023-03-15T01:43:30;101075.75;;;12.27;50.89
60725;BME280;59881;36.722;-4.462;2023-03-15T01:53:51;101173.38;;;12.94;50.96
60725;BME280;59881;36.722;-4.462;2023-03-15T01:56:20;101004.09;;;11.93;51.01
60725;BME280;59881;36.722;-4.462;2023-03-15T01:58:46;101179.41;;;12.96;50.88
60725;BME280;59881;36.722;-4.462;2023-03-15T02:01:13;100910.09;;;11.38;50.75
60725;BME280;59881;36.722;-4.462;2023-03-15T02:03:42;101296.22;;;13.03;50.90
60725;BME280;59881;36.722;-4.462;2023-03-15T02:06:13;101171.81;;;13.04;50.54
60725;BME280;59881;36.722;-4.462;2023-03-15T02:09:05;101184.38;;;13.01;50.09
60725;BME280;59881;36.722;-4.462;2023-03-15T02:11:33;101171.50;;;12.96;50.35
60725;BME280;59881;36.722;-4.462;2023-03-15T02:14:01;101174.22;;;12.95;50.57
60725;BME280;59881;36.722;-4.462;2023-03-15T02:16:28;101277.38;;;12.95;50.64
60725;BME280;59881;36.722;-4.462;2023-03-15T02:18:54;101185.66;;;12.30;50.45
60725;BME280;59881;36.722;-4.462;2023-03-15T02:26:58;101165.03;;;13.00;50.09
60725;BME280;59881;36.722;-4.462;2023-03-15T02:29:25;101165.88;;;13.01;49.77
60725;BME280;59881;36.722;-4.462;2023-03-15T02:31:52;101158.03;;;12.99;49.78
60725;BME280;59881;36.722;-4.462;2023-03-15T02:34:18;100552.66;;;9.37;50.10
60725;BME280;59881;36.722;-4.462;2023-03-15T02:36:43;100828.06;;;11.15;50.31
60725;BME280;59881;36.722;-4.462;2023-03-15T02:39:17;101160.69;;;13.12;50.04
60725;BME280;59881;36.722;-4.462;2023-03-15T02:41:47;101154.78;;;13.09;49.95
60725;BME280;59881;36.722;-4.462;2023-03-15T02:46:50;101066.78;;;12.42;50.34
60725;BME280;59881;36.722;-4.462;2023-03-15T02:49:17;100727.72;;;10.39;50.35
60725;BME280;59881;36.722;-4.462;2023-03-15T02:51:46;100904.03;;;10.69;50.55
60725;BME280;59881;36.722;-4.462;2023-03-15T02:54:11;101160.81;;;12.98;50.50
60725;BME280;59881;36.722;-4.462;2023-03-15T02:56:37;100822.53;;;10.93;50.11
60725;BME280;59881;36.722;-4.462;2023-03-15T02:59:02;101002.88;;;11.85;49.99
60725;BME280;59881;36.722;-4.462;2023-03-15T03:01:28;101160.34;;;12.40;50.29
60725;BME280;59881;36.722;-4.462;2023-03-15T03:03:53;101117.97;;;12.54;50.35
60725;BME280;59881;36.722;-4.462;2023-03-15T03:06:19;101026.25;;;11.91;50.52
60725;BME280;59881;36.722;-4.462;2023-03-15T03:08:45;100670.56;;;9.72;51.02
60725;BME280;59881;36.722;-4.462;2023-03-15T03:11:14;100702.75;;;9.90;51.09
60725;BME280;59881;36.722;-4.462;2023-03-15T03:13:41;101144.16;;;12.57;51.35
60725;BME280;59881;36.722;-4.462;2023-03-15T03:16:07;101086.06;;;12.17;52.06
60725;BME280;59881;36.722;-4.462;2023-03-15T03:18:33;101079.34;;;12.13;52.01
60725;BME280;59881;36.722;-4.462;2023-03-15T03:21:03;101144.03;;;12.46;52.02
60725;BME280;59881;36.722;-4.462;2023-03-15T03:23:30;101144.25;;;12.43;52.27
60725;BME280;59881;36.722;-4.462;2023-03-15T03:25:58;100975.19;;;11.37;52.13
60725;BME280;59881;36.722;-4.462;2023-03-15T03:28:27;100998.47;;;11.04;52.34
60725;BME280;59881;36.722;-4.462;2023-03-15T03:30:55;101130.84;;;12.33;52.20
60725;BME280;59881;36.722;-4.462;2023-03-15T03:33:21;101016.63;;;11.08;52.18
60725;BME280;59881;36.722;-4.462;2023-03-15T03:35:48;101131.97;;;12.29;52.52
60725;BME280;59881;36.722;-4.462;2023-03-15T03:38:14;101070.19;;;11.92;52.41
60725;BME280;59881;36.722;-4.462;2023-03-15T03:40:40;100889.25;;;10.81;52.43
60725;BME280;59881;36.722;-4.462;2023-03-15T03:43:07;101123.50;;;12.24;52.61
60725;BME280;59881;36.722;-4.462;2023-03-15T03:45:33;101171.03;;;11.55;52.35
60725;BME280;59881;36.722;-4.462;2023-03-15T03:47:59;101018.94;;;11.54;52.40
60725;BME280;59881;36.722;-4.462;2023-03-15T03:50:24;101077.44;;;11.61;51.85
60725;BME280;59881;36.722;-4.462;2023-03-15T03:52:50;101060.41;;;11.79;52.53
60725;BME280;59881;36.722;-4.462;2023-03-15T03:55:16;101087.25;;;11.86;52.49
60725;BME280;59881;36.722;-4.462;2023-03-15T03:57:42;101055.53;;;11.73;52.37
60725;BME280;59881;36.722;-4.462;2023-03-15T04:00:13;101051.19;;;11.72;52.27
60725;BME280;59881;36.722;-4.462;2023-03-15T04:02:39;100242.28;;;6.75;52.15
60725;BME280;59881;36.722;-4.462;2023-03-15T04:05:09;101102.41;;;11.70;52.96
60725;BME280;59881;36.722;-4.462;2023-03-15T04:07:36;100699.97;;;9.50;52.37
60725;BME280;59881;36.722;-4.462;2023-03-15T04:10:02;101125.91;;;12.14;52.55
60725;BME280;59881;36.722;-4.462;2023-03-15T04:12:28;100308.81;;;7.17;52.82
60725;BME280;59881;36.722;-4.462;2023-03-15T04:14:54;100061.94;;;5.64;52.50
60725;BME280;59881;36.722;-4.462;2023-03-15T04:17:20;100570.78;;;8.41;53.04
60725;BME280;59881;36.722;-4.462;2023-03-15T04:19:45;101229.13;;;12.11;52.98
60725;BME280;59881;36.722;-4.462;2023-03-15T04:22:12;100601.69;;;8.95;53.07
60725;BME280;59881;36.722;-4.462;2023-03-15T04:24:40;101123.19;;;12.16;52.99
60725;BME280;59881;36.722;-4.462;2023-03-15T04:27:06;101117.34;;;12.11;52.89
60725;BME280;59881;36.722;-4.462;2023-03-15T04:29:31;101191.59;;;12.06;52.59
60725;BME280;59881;36.722;-4.462;2023-03-15T04:31:57;101190.97;;;12.03;53.02
60725;BME280;59881;36.722;-4.462;2023-03-15T04:34:30;101004.41;;;11.34;53.16
60725;BME280;59881;36.722;-4.462;2023-03-15T04:36:56;100508.75;;;8.39;53.01
60725;BME280;59881;36.722;-4.462;2023-03-15T04:39:22;100938.50;;;10.93;52.82
60725;BME280;59881;36.722;-4.462;2023-03-15T04:41:48;101013.94;;;10.81;52.92
60725;BME280;59881;36.722;-4.462;2023-03-15T04:44:14;100970.97;;;11.08;52.73
60725;BME280;59881;36.722;-4.462;2023-03-15T04:46:42;100957.50;;;10.42;53.07
60725;BME280;59881;36.722;-4.462;2023-03-15T04:49:08;101113.59;;;11.88;53.52
60725;BME280;59881;36.722;-4.462;2023-03-15T04:51:34;100816.63;;;9.19;53.34
60725;BME280;59881;36.722;-4.462;2023-03-15T04:54:00;101005.94;;;11.24;53.50
60725;BME280;59881;36.722;-4.462;2023-03-15T04:56:26;101270.09;;;11.90;53.64
60725;BME280;59881;36.722;-4.462;2023-03-15T04:58:53;100711.13;;;9.25;53.39
60725;BME280;59881;36.722;-4.462;2023-03-15T05:01:18;99973.09;;;4.86;53.19
60725;BME280;59881;36.722;-4.462;2023-03-15T05:03:45;100738.69;;;9.48;53.31
60725;BME280;59881;36.722;-4.462;2023-03-15T05:06:10;100664.13;;;9.06;53.67
60725;BME280;59881;36.722;-4.462;2023-03-15T05:08:36;101117.25;;;11.85;53.61
60725;BME280;59881;36.722;-4.462;2023-03-15T05:11:03;100849.81;;;10.23;53.68
60725;BME280;59881;36.722;-4.462;2023-03-15T05:13:29;100820.00;;;10.08;53.34
60725;BME280;59881;36.722;-4.462;2023-03-15T05:15:54;100215.41;;;6.41;52.88
60725;BME280;59881;36.722;-4.462;2023-03-15T05:18:20;101118.06;;;11.86;53.03
60725;BME280;59881;36.722;-4.462;2023-03-15T05:20:46;101051.41;;;10.72;53.16
60725;BME280;59881;36.722;-4.462;2023-03-15T05:23:12;101116.88;;;11.77;53.10
60725;BME280;59881;36.722;-4.462;2023-03-15T05:25:38;100775.94;;;9.69;53.49
60725;BME280;59881;36.722;-4.462;2023-03-15T05:28:04;101088.47;;;11.53;53.76
60725;BME280;59881;36.722;-4.462;2023-03-15T05:30:30;101338.06;;;11.72;53.85
60725;BME280;59881;36.722;-4.462;2023-03-15T05:32:56;100509.38;;;7.99;53.46
60725;BME280;59881;36.722;-4.462;2023-03-15T05:35:21;101147.47;;;11.67;54.13
60725;BME280;59881;36.722;-4.462;2023-03-15T05:37:59;101122.22;;;11.63;54.05
60725;BME280;59881;36.722;-4.462;2023-03-15T05:40:25;100162.38;;;5.76;54.17
60725;BME280;59881;36.722;-4.462;2023-03-15T05:42:54;101083.84;;;11.30;54.14
60725;BME280;59881;36.722;-4.462;2023-03-15T05:45:20;101381.28;;;11.55;54.42
60725;BME280;59881;36.722;-4.462;2023-03-15T05:47:45;101057.75;;;11.11;54.32
60725;BME280;59881;36.722;-4.462;2023-03-15T05:50:11;101119.50;;;11.50;54.83
60725;BME280;59881;36.722;-4.462;2023-03-15T05:52:36;101043.94;;;11.07;54.79
60725;BME280;59881;36.722;-4.462;2023-03-15T05:55:02;101072.75;;;11.25;54.97
60725;BME280;59881;36.722;-4.462;2023-03-15T05:57:28;101384.19;;;11.50;55.07
60725;BME280;59881;36.722;-4.462;2023-03-15T05:59:54;101162.31;;;11.12;54.86
60725;BME280;59881;36.722;-4.462;2023-03-15T06:02:19;100940.66;;;10.45;55.11
60725;BME280;59881;36.722;-4.462;2023-03-15T06:04:45;101086.19;;;11.34;55.18
60725;BME280;59881;36.722;-4.462;2023-03-15T06:07:11;101056.84;;;11.12;54.97
60725;BME280;59881;36.722;-4.462;2023-03-15T06:09:37;101105.09;;;11.41;55.38
60725;BME280;59881;36.722;-4.462;2023-03-15T06:12:03;100723.88;;;9.02;55.05
60725;BME280;59881;36.722;-4.462;2023-03-15T06:14:28;100606.69;;;8.41;54.97
60725;BME280;59881;36.722;-4.462;2023-03-15T06:16:54;101034.81;;;10.98;55.00
60725;BME280;59881;36.722;-4.462;2023-03-15T06:19:20;100958.84;;;10.49;55.19
60725;BME280;59881;36.722;-4.462;2023-03-15T06:21:46;100268.59;;;5.77;54.96
60725;BME280;59881;36.722;-4.462;2023-03-15T06:24:12;101047.72;;;10.89;55.20
60725;BME280;59881;36.722;-4.462;2023-03-15T06:26:38;101226.19;;;11.46;55.10
60725;BME280;59881;36.722;-4.462;2023-03-15T06:29:04;100808.38;;;9.55;55.19
60725;BME280;59881;36.722;-4.462;2023-03-15T06:31:29;101082.13;;;11.29;55.29
60725;BME280;59881;36.722;-4.462;2023-03-15T06:33:55;101004.13;;;10.97;55.08
60725;BME280;59881;36.722;-4.462;2023-03-15T06:36:21;101084.44;;;11.89;54.58
60725;BME280;59881;36.722;-4.462;2023-03-15T06:38:49;101136.56;;;12.66;53.87
60725;BME280;59881;36.722;-4.462;2023-03-15T06:41:15;101050.25;;;12.90;52.63
60725;BME280;59881;36.722;-4.462;2023-03-15T06:43:41;101045.94;;;13.63;51.22
60725;BME280;59881;36.722;-4.462;2023-03-15T06:46:06;101112.19;;;14.69;48.43
60725;BME280;59881;36.722;-4.462;2023-03-15T06:48:32;101064.09;;;15.19;46.62
60725;BME280;59881;36.722;-4.462;2023-03-15T06:50:58;101105.66;;;16.28;44.09
60725;BME280;59881;36.722;-4.462;2023-03-15T06:53:23;100952.50;;;16.16;41.98
60725;BME280;59881;36.722;-4.462;2023-03-15T06:55:49;101178.00;;;17.87;40.15
60725;BME280;59881;36.722;-4.462;2023-03-15T06:58:15;100851.44;;;16.96;38.39
60725;BME280;59881;36.722;-4.462;2023-03-15T07:00:41;101109.38;;;19.32;37.08
60725;BME280;59881;36.722;-4.462;2023-03-15T07:03:07;101103.75;;;19.98;35.63
60725;BME280;59881;36.722;-4.462;2023-03-15T07:05:33;100881.97;;;19.27;34.51
60725;BME280;59881;36.722;-4.462;2023-03-15T07:07:58;100913.00;;;19.90;33.19
60725;BME280;59881;36.722;-4.462;2023-03-15T07:10:24;101032.34;;;21.03;32.35
60725;BME280;59881;36.722;-4.462;2023-03-15T07:12:50;100628.34;;;19.59;31.10
60725;BME280;59881;36.722;-4.462;2023-03-15T07:15:16;100278.25;;;17.86;30.22
60725;BME280;59881;36.722;-4.462;2023-03-15T07:17:41;101099.28;;;23.72;29.30
60725;BME280;59881;36.722;-4.462;2023-03-15T07:20:07;101091.81;;;24.29;28.44
60725;BME280;59881;36.722;-4.462;2023-03-15T07:22:33;100816.00;;;23.04;27.59
60725;BME280;59881;36.722;-4.462;2023-03-15T07:24:59;101141.13;;;24.67;26.98
60725;BME280;59881;36.722;-4.462;2023-03-15T07:27:25;100861.59;;;24.18;26.59
60725;BME280;59881;36.722;-4.462;2023-03-15T07:29:51;100627.53;;;23.22;25.74
60725;BME280;59881;36.722;-4.462;2023-03-15T07:32:16;101051.03;;;26.22;25.49
60725;BME280;59881;36.722;-4.462;2023-03-15T07:34:42;100905.94;;;26.02;24.56
60725;BME280;59881;36.722;-4.462;2023-03-15T07:37:08;101105.41;;;27.72;23.97
60725;BME280;59881;36.722;-4.462;2023-03-15T07:39:34;100860.66;;;26.46;22.90
60725;BME280;59881;36.722;-4.462;2023-03-15T07:42:00;101103.00;;;28.70;22.45
60725;BME280;59881;36.722;-4.462;2023-03-15T07:44:25;100770.75;;;27.06;21.92
60725;BME280;59881;36.722;-4.462;2023-03-15T07:46:51;101104.72;;;29.61;21.74
60725;BME280;59881;36.722;-4.462;2023-03-15T07:49:17;101058.41;;;29.88;20.83
60725;BME280;59881;36.722;-4.462;2023-03-15T07:51:43;100760.78;;;28.43;20.74
60725;BME280;59881;36.722;-4.462;2023-03-15T07:54:08;100841.44;;;29.36;20.12
60725;BME280;59881;36.722;-4.462;2023-03-15T07:56:34;101046.22;;;31.14;19.68
60725;BME280;59881;36.722;-4.462;2023-03-15T07:59:00;101143.72;;;31.96;19.09
60725;BME280;59881;36.722;-4.462;2023-03-15T08:01:25;101085.16;;;32.41;18.36
60725;BME280;59881;36.722;-4.462;2023-03-15T08:03:51;101110.16;;;32.85;18.19
60725;BME280;59881;36.722;-4.462;2023-03-15T08:06:17;100739.47;;;30.86;17.78
60725;BME280;59881;36.722;-4.462;2023-03-15T08:08:42;101098.94;;;33.51;17.36
60725;BME280;59881;36.722;-4.462;2023-03-15T08:11:08;101115.25;;;34.08;17.09
60725;BME280;59881;36.722;-4.462;2023-03-15T08:13:33;100927.94;;;33.33;16.79
60725;BME280;59881;36.722;-4.462;2023-03-15T08:16:00;100848.25;;;33.36;16.27
60725;BME280;59881;36.722;-4.462;2023-03-15T08:18:25;101073.38;;;35.24;16.05
60725;BME280;59881;36.722;-4.462;2023-03-15T08:20:53;101177.81;;;36.10;15.27
60725;BME280;59881;36.722;-4.462;2023-03-15T08:23:19;100992.09;;;35.30;15.26
60725;BME280;59881;36.722;-4.462;2023-03-15T08:25:46;100859.81;;;34.97;14.99
60725;BME280;59881;36.722;-4.462;2023-03-15T08:28:13;101133.50;;;37.08;14.18
60725;BME280;59881;36.722;-4.462;2023-03-15T08:30:39;101138.06;;;37.55;14.10
60725;BME280;59881;36.722;-4.462;2023-03-15T08:33:06;101141.94;;;37.95;13.85
60725;BME280;59881;36.722;-4.462;2023-03-15T08:35:32;101145.78;;;38.30;13.50
60725;BME280;59881;36.722;-4.462;2023-03-15T08:37:59;101025.63;;;37.89;13.14
60725;BME280;59881;36.722;-4.462;2023-03-15T08:40:27;101091.97;;;38.89;12.83
60725;BME280;59881;36.722;-4.462;2023-03-15T08:42:54;101114.97;;;39.19;12.91
60725;BME280;59881;36.722;-4.462;2023-03-15T08:45:21;101076.63;;;38.73;13.06
60725;BME280;59881;36.722;-4.462;2023-03-15T08:47:48;101160.25;;;39.02;13.10
60725;BME280;59881;36.722;-4.462;2023-03-15T08:52:49;101018.34;;;38.45;13.11
60725;BME280;59881;36.722;-4.462;2023-03-15T08:55:15;101160.63;;;39.40;13.02
60725;BME280;59881;36.722;-4.462;2023-03-15T08:57:41;101040.47;;;38.95;12.48
60725;BME280;59881;36.722;-4.462;2023-03-15T09:00:07;101166.22;;;40.72;11.95
60725;BME280;59881;36.722;-4.462;2023-03-15T09:02:37;101184.06;;;41.04;11.65
60725;BME280;59881;36.722;-4.462;2023-03-15T09:05:03;101023.72;;;40.47;11.96
60725;BME280;59881;36.722;-4.462;2023-03-15T09:07:31;101128.25;;;41.97;11.54
60725;BME280;59881;36.722;-4.462;2023-03-15T09:09:57;101138.69;;;42.19;10.53
60725;BME280;59881;36.722;-4.462;2023-03-15T09:12:22;100890.63;;;40.31;10.82
60725;BME280;59881;36.722;-4.462;2023-03-15T09:14:48;101132.84;;;41.88;10.26
60725;BME280;59881;36.722;-4.462;2023-03-15T09:17:15;101002.81;;;41.41;10.31
60725;BME280;59881;36.722;-4.462;2023-03-15T09:19:40;101114.31;;;42.35;10.24
60725;BME280;59881;36.722;-4.462;2023-03-15T09:22:06;101120.28;;;42.97;9.96
60725;BME280;59881;36.722;-4.462;2023-03-15T09:24:32;101167.34;;;43.39;9.75
60725;BME280;59881;36.722;-4.462;2023-03-15T09:26:58;101169.63;;;43.73;9.36
60725;BME280;59881;36.722;-4.462;2023-03-15T09:29:24;101007.31;;;42.81;9.43
60725;BME280;59881;36.722;-4.462;2023-03-15T09:31:49;100951.06;;;42.94;9.57
60725;BME280;59881;36.722;-4.462;2023-03-15T09:34:15;101201.81;;;44.51;9.08
60725;BME280;59881;36.722;-4.462;2023-03-15T09:36:41;101158.22;;;44.29;9.08
60725;BME280;59881;36.722;-4.462;2023-03-15T09:39:06;100946.25;;;43.08;9.16
60725;BME280;59881;36.722;-4.462;2023-03-15T09:41:43;101169.31;;;45.00;8.79
60725;BME280;59881;36.722;-4.462;2023-03-15T09:52:26;101163.41;;;47.00;7.42
60725;BME280;59881;36.722;-4.462;2023-03-15T09:55:03;101156.84;;;46.75;7.43
60725;BME280;59881;36.722;-4.462;2023-03-15T09:57:42;101156.56;;;46.59;7.35
60725;BME280;59881;36.722;-4.462;2023-03-15T10:00:16;101132.72;;;46.79;7.80
60725;BME280;59881;36.722;-4.462;2023-03-15T10:02:57;101186.03;;;47.92;7.28
60725;BME280;59881;36.722;-4.462;2023-03-15T10:05:36;101155.41;;;48.53;6.66
60725;BME280;59881;36.722;-4.462;2023-03-15T10:08:08;101119.25;;;47.99;6.73
60725;BME280;59881;36.722;-4.462;2023-03-15T10:10:37;101149.72;;;48.62;6.71
60725;BME280;59881;36.722;-4.462;2023-03-15T10:13:30;101156.78;;;48.84;6.14
60725;BME280;59881;36.722;-4.462;2023-03-15T10:21:31;101136.53;;;51.34;5.40
60725;BME280;59881;36.722;-4.462;2023-03-15T10:23:58;101132.94;;;51.96;5.12
60725;BME280;59881;36.722;-4.462;2023-03-15T10:26:32;101113.69;;;52.21;5.37
60725;BME280;59881;36.722;-4.462;2023-03-15T10:29:02;101125.38;;;52.76;4.90
60725;BME280;59881;36.722;-4.462;2023-03-15T10:31:33;101084.34;;;52.71;4.60
60725;BME280;59881;36.722;-4.462;2023-03-15T10:34:01;101018.28;;;52.05;4.53
60725;BME280;59881;36.722;-4.462;2023-03-15T10:36:27;101130.50;;;53.27;4.58
60725;BME280;59881;36.722;-4.462;2023-03-15T10:38:53;100910.06;;;52.14;4.58
60725;BME280;59881;36.722;-4.462;2023-03-15T10:41:36;101133.81;;;53.70;4.35
60725;BME280;59881;36.722;-4.462;2023-03-15T10:44:05;101122.69;;;52.83;4.27
60725;BME280;59881;36.722;-4.462;2023-03-15T10:46:32;101051.59;;;52.56;4.61
60725;BME280;59881;36.722;-4.462;2023-03-15T10:51:42;101103.38;;;50.65;5.63
60725;BME280;59881;36.722;-4.462;2023-03-15T10:54:21;101129.34;;;48.74;6.20
60725;BME280;59881;36.722;-4.462;2023-03-15T10:57:03;101050.47;;;46.64;6.76
60725;BME280;59881;36.722;-4.462;2023-03-15T10:59:34;101102.59;;;42.10;8.86
60725;BME280;59881;36.722;-4.462;2023-03-15T11:02:18;100895.44;;;34.26;13.27
60725;BME280;59881;36.722;-4.462;2023-03-15T11:04:59;101096.88;;;30.97;16.20
60725;BME280;59881;36.722;-4.462;2023-03-15T11:07:25;100972.16;;;27.56;19.21
60725;BME280;59881;36.722;-4.462;2023-03-15T11:09:59;101148.16;;;26.93;21.20
60725;BME280;59881;36.722;-4.462;2023-03-15T11:12:27;101136.81;;;25.62;23.49
60725;BME280;59881;36.722;-4.462;2023-03-15T11:15:06;101158.28;;;24.66;24.74
60725;BME280;59881;36.722;-4.462;2023-03-15T11:17:41;101133.53;;;23.87;26.16
60725;BME280;59881;36.722;-4.462;2023-03-15T11:22:45;101078.03;;;22.76;27.79
60725;BME280;59881;36.722;-4.462;2023-03-15T11:25:14;100976.03;;;21.46;29.15
60725;BME280;59881;36.722;-4.462;2023-03-15T11:27:41;101200.59;;;22.44;29.80
60725;BME280;59881;36.722;-4.462;2023-03-15T11:30:15;101090.88;;;22.24;30.14
60725;BME280;59881;36.722;-4.462;2023-03-15T11:32:42;101176.25;;;22.21;30.61
60725;BME280;59881;36.722;-4.462;2023-03-15T11:35:13;101142.38;;;22.44;30.89
60725;BME280;59881;36.722;-4.462;2023-03-15T11:37:46;101163.00;;;22.36;30.87
60725;BME280;59881;36.722;-4.462;2023-03-15T11:43:04;101135.16;;;22.28;31.36
60725;BME280;59881;36.722;-4.462;2023-03-15T11:45:44;101118.53;;;22.08;31.82
60725;BME280;59881;36.722;-4.462;2023-03-15T11:51:11;101123.69;;;21.77;33.25
60725;BME280;59881;36.722;-4.462;2023-03-15T11:53:44;101133.72;;;21.67;33.06
60725;BME280;59881;36.722;-4.462;2023-03-15T11:56:25;101127.19;;;21.69;33.63
60725;BME280;59881;36.722;-4.462;2023-03-15T11:59:14;101122.00;;;21.68;33.39
60725;BME280;59881;36.722;-4.462;2023-03-15T12:01:58;101115.28;;;21.64;33.55
60725;BME280;59881;36.722;-4.462;2023-03-15T12:06:58;101125.72;;;21.33;34.38
60725;BME280;59881;36.722;-4.462;2023-03-15T12:09:48;101123.97;;;21.15;34.37
60725;BME280;59881;36.722;-4.462;2023-03-15T12:17:41;100528.38;;;17.71;35.63
60725;BME280;59881;36.722;-4.462;2023-03-15T12:27:45;100981.16;;;20.38;36.96
60725;BME280;59881;36.722;-4.462;2023-03-15T12:30:32;101112.72;;;21.03;36.78
60725;BME280;59881;36.722;-4.462;2023-03-15T12:33:01;101068.00;;;20.70;37.28
60725;BME280;59881;36.722;-4.462;2023-03-15T12:35:32;101043.59;;;20.46;37.92
60725;BME280;59881;36.722;-4.462;2023-03-15T12:38:02;101099.69;;;20.82;37.61
60725;BME280;59881;36.722;-4.462;2023-03-15T12:40:50;101145.69;;;20.78;38.03
60725;BME280;59881;36.722;-4.462;2023-03-15T12:43:41;101086.13;;;20.76;38.04
60725;BME280;59881;36.722;-4.462;2023-03-15T12:49:14;100986.66;;;20.10;39.05
60725;BME280;59881;36.722;-4.462;2023-03-15T12:52:02;100981.22;;;20.20;38.80
60725;BME280;59881;36.722;-4.462;2023-03-15T12:54:45;101063.53;;;20.78;39.19
60725;BME280;59881;36.722;-4.462;2023-03-15T12:57:13;100649.66;;;18.20;39.27
60725;BME280;59881;36.722;-4.462;2023-03-15T12:59:45;101051.66;;;20.81;39.00
60725;BME280;59881;36.722;-4.462;2023-03-15T13:05:22;101048.56;;;20.67;39.68
60725;BME280;59881;36.722;-4.462;2023-03-15T13:07:55;101048.81;;;20.56;39.92
60725;BME280;59881;36.722;-4.462;2023-03-15T13:18:39;101033.72;;;20.21;40.25
60725;BME280;59881;36.722;-4.462;2023-03-15T13:21:23;101088.69;;;20.15;41.38
60725;BME280;59881;36.722;-4.462;2023-03-15T13:23:51;100975.91;;;19.76;40.84
60725;BME280;59881;36.722;-4.462;2023-03-15T13:31:30;100569.13;;;17.35;39.44
60725;BME280;59881;36.722;-4.462;2023-03-15T13:34:19;100881.78;;;19.46;38.39
60725;BME280;59881;36.722;-4.462;2023-03-15T13:36:45;100773.34;;;18.91;38.95
60725;BME280;59881;36.722;-4.462;2023-03-15T13:39:30;100996.00;;;20.32;38.17
60725;BME280;59881;36.722;-4.462;2023-03-15T13:41:57;100988.66;;;20.34;36.61
60725;BME280;59881;36.722;-4.462;2023-03-15T13:44:24;100976.28;;;20.33;34.29
60725;BME280;59881;36.722;-4.462;2023-03-15T13:46:51;100671.97;;;18.19;33.80
60725;BME280;59881;36.722;-4.462;2023-03-15T13:49:18;100968.75;;;20.37;33.95
60725;BME280;59881;36.722;-4.462;2023-03-15T13:51:45;101006.06;;;20.38;32.72
60725;BME280;59881;36.722;-4.462;2023-03-15T13:54:24;100932.94;;;20.30;32.09
60725;BME280;59881;36.722;-4.462;2023-03-15T13:57:17;100962.00;;;20.51;31.55
60725;BME280;59881;36.722;-4.462;2023-03-15T13:59:57;100957.28;;;20.44;30.78
60725;BME280;59881;36.722;-4.462;2023-03-15T14:02:35;100895.66;;;19.94;31.29
60725;BME280;59881;36.722;-4.462;2023-03-15T14:05:04;101040.78;;;20.30;30.44
60725;BME280;59881;36.722;-4.462;2023-03-15T14:07:36;100918.63;;;20.04;30.96